sensor_id;sensor_type;location;lat;lon;timestamp;P1;durP1;ratioP1;P2;durP2;ratioP2
38629;SDS011;24384;51.988;4.644;2022-08-01T00:00:00;14.52;;;9.48;;
38629;SDS011;24384;51.988;4.644;2022-08-01T00:02:27;18.90;;;9.82;;
38629;SDS011;24384;51.988;4.644;2022-08-01T00:04:54;18.25;;;9.68;;
38629;SDS011;24384;51.988;4.644;2022-08-01T00:07:19;20.33;;;9.95;;
38629;SDS011;24384;51.988;4.644;2022-08-01T00:09:45;17.65;;;9.63;;
38629;SDS011;24384;51.988;4.644;2022-08-01T00:12:10;18.70;;;9.60;;
38629;SDS011;24384;51.988;4.644;2022-08-01T00:14:35;17.45;;;9.98;;
38629;SDS011;24384;51.988;4.644;2022-08-01T00:17:01;15.18;;;9.07;;
38629;SDS011;24384;51.988;4.644;2022-08-01T00:19:27;17.02;;;10.65;;
38629;SDS011;24384;51.988;4.644;2022-08-01T00:21:52;19.55;;;9.40;;
38629;SDS011;24384;51.988;4.644;2022-08-01T00:24:18;17.42;;;9.45;;
38629;SDS011;24384;51.988;4.644;2022-08-01T00:26:43;18.75;;;10.32;;
38629;SDS011;24384;51.988;4.644;2022-08-01T00:29:08;16.40;;;8.98;;
38629;SDS011;24384;51.988;4.644;2022-08-01T00:31:34;17.80;;;10.32;;
38629;SDS011;24384;51.988;4.644;2022-08-01T00:33:59;17.85;;;10.25;;
38629;SDS011;24384;51.988;4.644;2022-08-01T00:36:24;17.55;;;10.43;;
38629;SDS011;24384;51.988;4.644;2022-08-01T00:38:50;17.65;;;10.77;;
38629;SDS011;24384;51.988;4.644;2022-08-01T00:41:15;20.05;;;10.05;;
38629;SDS011;24384;51.988;4.644;2022-08-01T00:43:41;18.77;;;10.15;;
38629;SDS011;24384;51.988;4.644;2022-08-01T00:46:06;18.17;;;9.85;;
38629;SDS011;24384;51.988;4.644;2022-08-01T00:48:32;16.45;;;9.43;;
38629;SDS011;24384;51.988;4.644;2022-08-01T00:50:57;14.70;;;7.93;;
38629;SDS011;24384;51.988;4.644;2022-08-01T00:53:23;14.50;;;8.25;;
38629;SDS011;24384;51.988;4.644;2022-08-01T00:55:50;16.25;;;7.35;;
38629;SDS011;24384;51.988;4.644;2022-08-01T00:58:15;14.75;;;8.20;;
38629;SDS011;24384;51.988;4.644;2022-08-01T01:00:41;12.65;;;7.45;;
38629;SDS011;24384;51.988;4.644;2022-08-01T01:03:07;14.55;;;7.18;;
38629;SDS011;24384;51.988;4.644;2022-08-01T01:05:34;14.50;;;7.43;;
38629;SDS011;24384;51.988;4.644;2022-08-01T01:08:08;13.40;;;8.02;;
38629;SDS011;24384;51.988;4.644;2022-08-01T01:13:38;20.50;;;8.00;;
38629;SDS011;24384;51.988;4.644;2022-08-01T01:16:15;15.45;;;7.90;;
38629;SDS011;24384;51.988;4.644;2022-08-01T01:26:37;25.17;;;8.18;;
38629;SDS011;24384;51.988;4.644;2022-08-01T01:29:17;22.48;;;8.45;;
38629;SDS011;24384;51.988;4.644;2022-08-01T01:34:29;17.85;;;7.95;;
38629;SDS011;24384;51.988;4.644;2022-08-01T01:36:58;14.38;;;7.35;;
38629;SDS011;24384;51.988;4.644;2022-08-01T01:39:26;18.05;;;7.32;;
38629;SDS011;24384;51.988;4.644;2022-08-01T01:41:54;16.67;;;6.93;;
38629;SDS011;24384;51.988;4.644;2022-08-01T01:44:21;11.90;;;6.38;;
38629;SDS011;24384;51.988;4.644;2022-08-01T01:46:47;9.98;;;5.18;;
38629;SDS011;24384;51.988;4.644;2022-08-01T01:49:15;10.82;;;4.68;;
38629;SDS011;24384;51.988;4.644;2022-08-01T01:51:42;10.23;;;4.38;;
38629;SDS011;24384;51.988;4.644;2022-08-01T01:54:11;8.40;;;3.90;;
38629;SDS011;24384;51.988;4.644;2022-08-01T01:56:36;7.07;;;3.72;;
38629;SDS011;24384;51.988;4.644;2022-08-01T01:59:13;9.95;;;3.88;;
38629;SDS011;24384;51.988;4.644;2022-08-01T02:01:43;7.30;;;3.88;;
38629;SDS011;24384;51.988;4.644;2022-08-01T02:04:09;6.85;;;3.63;;
38629;SDS011;24384;51.988;4.644;2022-08-01T02:06:36;6.82;;;3.78;;
38629;SDS011;24384;51.988;4.644;2022-08-01T02:09:03;6.45;;;3.75;;
38629;SDS011;24384;51.988;4.644;2022-08-01T02:11:29;7.72;;;4.18;;
38629;SDS011;24384;51.988;4.644;2022-08-01T02:13:57;10.52;;;4.28;;
38629;SDS011;24384;51.988;4.644;2022-08-01T02:16:28;8.05;;;4.45;;
38629;SDS011;24384;51.988;4.644;2022-08-01T02:18:55;9.73;;;4.05;;
38629;SDS011;24384;51.988;4.644;2022-08-01T02:21:23;7.82;;;3.83;;
38629;SDS011;24384;51.988;4.644;2022-08-01T02:24:14;9.57;;;4.28;;
38629;SDS011;24384;51.988;4.644;2022-08-01T02:26:49;8.18;;;3.90;;
38629;SDS011;24384;51.988;4.644;2022-08-01T02:29:20;8.73;;;4.20;;
38629;SDS011;24384;51.988;4.644;2022-08-01T02:31:49;6.30;;;3.65;;
38629;SDS011;24384;51.988;4.644;2022-08-01T02:34:19;7.57;;;4.57;;
38629;SDS011;24384;51.988;4.644;2022-08-01T02:36:47;13.25;;;4.78;;
38629;SDS011;24384;51.988;4.644;2022-08-01T02:39:13;13.55;;;5.80;;
38629;SDS011;24384;51.988;4.644;2022-08-01T02:41:44;13.88;;;5.45;;
38629;SDS011;24384;51.988;4.644;2022-08-01T02:44:18;13.48;;;4.93;;
38629;SDS011;24384;51.988;4.644;2022-08-01T02:46:51;12.68;;;5.47;;
38629;SDS011;24384;51.988;4.644;2022-08-01T02:49:20;14.75;;;4.88;;
38629;SDS011;24384;51.988;4.644;2022-08-01T02:51:48;8.13;;;4.72;;
38629;SDS011;24384;51.988;4.644;2022-08-01T02:54:16;8.45;;;4.60;;
38629;SDS011;24384;51.988;4.644;2022-08-01T02:56:43;9.80;;;4.65;;
38629;SDS011;24384;51.988;4.644;2022-08-01T02:59:12;10.52;;;4.40;;
38629;SDS011;24384;51.988;4.644;2022-08-01T03:01:42;8.57;;;4.40;;
38629;SDS011;24384;51.988;4.644;2022-08-01T03:04:10;13.13;;;4.30;;
38629;SDS011;24384;51.988;4.644;2022-08-01T03:06:36;10.98;;;3.90;;
38629;SDS011;24384;51.988;4.644;2022-08-01T03:09:03;13.05;;;4.28;;
38629;SDS011;24384;51.988;4.644;2022-08-01T03:11:30;9.32;;;4.40;;
38629;SDS011;24384;51.988;4.644;2022-08-01T03:13:59;11.18;;;4.50;;
38629;SDS011;24384;51.988;4.644;2022-08-01T03:16:28;9.95;;;4.90;;
38629;SDS011;24384;51.988;4.644;2022-08-01T03:18:56;12.57;;;4.93;;
38629;SDS011;24384;51.988;4.644;2022-08-01T03:21:23;9.10;;;4.72;;
38629;SDS011;24384;51.988;4.644;2022-08-01T03:23:49;11.20;;;4.88;;
38629;SDS011;24384;51.988;4.644;2022-08-01T03:26:21;8.57;;;4.20;;
38629;SDS011;24384;51.988;4.644;2022-08-01T03:28:51;11.25;;;5.10;;
38629;SDS011;24384;51.988;4.644;2022-08-01T03:31:20;10.05;;;5.07;;
38629;SDS011;24384;51.988;4.644;2022-08-01T03:33:46;11.90;;;5.05;;
38629;SDS011;24384;51.988;4.644;2022-08-01T03:36:11;13.43;;;4.75;;
38629;SDS011;24384;51.988;4.644;2022-08-01T03:38:37;12.98;;;4.65;;
38629;SDS011;24384;51.988;4.644;2022-08-01T03:43:56;10.73;;;4.93;;
38629;SDS011;24384;51.988;4.644;2022-08-01T03:46:30;9.82;;;5.00;;
38629;SDS011;24384;51.988;4.644;2022-08-01T03:49:00;6.93;;;4.53;;
38629;SDS011;24384;51.988;4.644;2022-08-01T03:51:31;10.20;;;4.65;;
38629;SDS011;24384;51.988;4.644;2022-08-01T03:53:58;7.88;;;4.38;;
38629;SDS011;24384;51.988;4.644;2022-08-01T03:56:26;6.97;;;3.63;;
38629;SDS011;24384;51.988;4.644;2022-08-01T03:58:55;10.02;;;4.40;;
38629;SDS011;24384;51.988;4.644;2022-08-01T04:01:22;6.95;;;4.07;;
38629;SDS011;24384;51.988;4.644;2022-08-01T04:03:47;9.85;;;4.20;;
38629;SDS011;24384;51.988;4.644;2022-08-01T04:06:13;9.40;;;3.97;;
38629;SDS011;24384;51.988;4.644;2022-08-01T04:08:40;11.27;;;4.00;;
38629;SDS011;24384;51.988;4.644;2022-08-01T04:11:07;9.52;;;4.20;;
38629;SDS011;24384;51.988;4.644;2022-08-01T04:13:34;10.35;;;4.25;;
38629;SDS011;24384;51.988;4.644;2022-08-01T04:15:59;9.13;;;3.78;;
38629;SDS011;24384;51.988;4.644;2022-08-01T04:18:25;8.68;;;3.60;;
38629;SDS011;24384;51.988;4.644;2022-08-01T04:20:50;5.45;;;3.40;;
38629;SDS011;24384;51.988;4.644;2022-08-01T04:23:16;10.18;;;3.65;;
38629;SDS011;24384;51.988;4.644;2022-08-01T04:25:45;7.65;;;3.78;;
38629;SDS011;24384;51.988;4.644;2022-08-01T04:28:14;7.75;;;3.88;;
38629;SDS011;24384;51.988;4.644;2022-08-01T04:30:41;7.95;;;3.25;;
38629;SDS011;24384;51.988;4.644;2022-08-01T04:33:09;8.10;;;3.92;;
38629;SDS011;24384;51.988;4.644;2022-08-01T04:35:41;8.50;;;3.93;;
38629;SDS011;24384;51.988;4.644;2022-08-01T04:38:10;8.90;;;3.50;;
38629;SDS011;24384;51.988;4.644;2022-08-01T04:40:39;9.10;;;2.88;;
38629;SDS011;24384;51.988;4.644;2022-08-01T04:43:06;9.32;;;3.33;;
38629;SDS011;24384;51.988;4.644;2022-08-01T04:45:32;9.68;;;3.33;;
38629;SDS011;24384;51.988;4.644;2022-08-01T04:47:59;5.68;;;3.00;;
38629;SDS011;24384;51.988;4.644;2022-08-01T04:50:25;5.50;;;3.00;;
38629;SDS011;24384;51.988;4.644;2022-08-01T04:52:50;8.95;;;3.30;;
38629;SDS011;24384;51.988;4.644;2022-08-01T04:55:16;7.13;;;2.75;;
38629;SDS011;24384;51.988;4.644;2022-08-01T04:57:43;6.60;;;3.60;;
38629;SDS011;24384;51.988;4.644;2022-08-01T05:00:10;7.78;;;3.10;;
38629;SDS011;24384;51.988;4.644;2022-08-01T05:02:36;8.90;;;2.88;;
38629;SDS011;24384;51.988;4.644;2022-08-01T05:05:01;8.68;;;3.22;;
38629;SDS011;24384;51.988;4.644;2022-08-01T05:07:27;8.50;;;2.80;;
38629;SDS011;24384;51.988;4.644;2022-08-01T05:09:53;5.38;;;2.72;;
38629;SDS011;24384;51.988;4.644;2022-08-01T05:12:18;11.20;;;3.38;;
38629;SDS011;24384;51.988;4.644;2022-08-01T05:14:44;6.85;;;2.80;;
38629;SDS011;24384;51.988;4.644;2022-08-01T05:17:09;12.10;;;3.42;;
38629;SDS011;24384;51.988;4.644;2022-08-01T05:19:36;7.22;;;2.55;;
38629;SDS011;24384;51.988;4.644;2022-08-01T05:22:04;8.27;;;3.70;;
38629;SDS011;24384;51.988;4.644;2022-08-01T05:24:31;4.90;;;2.78;;
38629;SDS011;24384;51.988;4.644;2022-08-01T05:26:57;9.68;;;3.00;;
38629;SDS011;24384;51.988;4.644;2022-08-01T05:29:24;6.22;;;2.53;;
38629;SDS011;24384;51.988;4.644;2022-08-01T05:31:50;5.78;;;2.70;;
38629;SDS011;24384;51.988;4.644;2022-08-01T05:34:16;7.18;;;3.08;;
38629;SDS011;24384;51.988;4.644;2022-08-01T05:36:42;7.00;;;2.83;;
38629;SDS011;24384;51.988;4.644;2022-08-01T05:39:08;4.90;;;3.13;;
38629;SDS011;24384;51.988;4.644;2022-08-01T05:41:33;9.27;;;3.42;;
38629;SDS011;24384;51.988;4.644;2022-08-01T05:44:01;12.48;;;3.40;;
38629;SDS011;24384;51.988;4.644;2022-08-01T05:46:26;9.80;;;3.28;;
38629;SDS011;24384;51.988;4.644;2022-08-01T05:48:52;8.32;;;3.42;;
38629;SDS011;24384;51.988;4.644;2022-08-01T05:51:17;8.23;;;3.13;;
38629;SDS011;24384;51.988;4.644;2022-08-01T05:53:42;7.45;;;2.97;;
38629;SDS011;24384;51.988;4.644;2022-08-01T05:56:08;9.30;;;3.00;;
38629;SDS011;24384;51.988;4.644;2022-08-01T05:58:34;4.90;;;2.70;;
38629;SDS011;24384;51.988;4.644;2022-08-01T06:00:59;7.38;;;2.75;;
38629;SDS011;24384;51.988;4.644;2022-08-01T06:03:25;3.80;;;2.10;;
38629;SDS011;24384;51.988;4.644;2022-08-01T06:05:51;6.32;;;1.88;;
38629;SDS011;24384;51.988;4.644;2022-08-01T06:08:17;5.55;;;1.92;;
38629;SDS011;24384;51.988;4.644;2022-08-01T06:10:43;6.15;;;1.70;;
38629;SDS011;24384;51.988;4.644;2022-08-01T06:13:08;4.50;;;1.75;;
38629;SDS011;24384;51.988;4.644;2022-08-01T06:15:33;5.15;;;2.00;;
38629;SDS011;24384;51.988;4.644;2022-08-01T06:17:59;4.30;;;1.88;;
38629;SDS011;24384;51.988;4.644;2022-08-01T06:20:24;4.57;;;2.10;;
38629;SDS011;24384;51.988;4.644;2022-08-01T06:22:50;6.28;;;2.50;;
38629;SDS011;24384;51.988;4.644;2022-08-01T06:25:17;4.00;;;2.22;;
38629;SDS011;24384;51.988;4.644;2022-08-01T06:27:43;6.38;;;2.80;;
38629;SDS011;24384;51.988;4.644;2022-08-01T06:30:08;5.90;;;2.70;;
38629;SDS011;24384;51.988;4.644;2022-08-01T06:32:38;5.88;;;2.63;;
38629;SDS011;24384;51.988;4.644;2022-08-01T06:35:04;6.28;;;3.08;;
38629;SDS011;24384;51.988;4.644;2022-08-01T06:37:30;5.20;;;3.30;;
38629;SDS011;24384;51.988;4.644;2022-08-01T06:40:00;5.35;;;3.30;;
38629;SDS011;24384;51.988;4.644;2022-08-01T06:42:27;7.10;;;3.83;;
38629;SDS011;24384;51.988;4.644;2022-08-01T06:44:52;7.03;;;5.10;;
38629;SDS011;24384;51.988;4.644;2022-08-01T06:47:18;12.07;;;5.82;;
38629;SDS011;24384;51.988;4.644;2022-08-01T06:49:43;10.15;;;6.85;;
38629;SDS011;24384;51.988;4.644;2022-08-01T06:52:09;11.45;;;7.15;;
38629;SDS011;24384;51.988;4.644;2022-08-01T06:54:34;10.88;;;6.50;;
38629;SDS011;24384;51.988;4.644;2022-08-01T06:56:59;9.95;;;7.60;;
38629;SDS011;24384;51.988;4.644;2022-08-01T06:59:25;13.32;;;7.43;;
38629;SDS011;24384;51.988;4.644;2022-08-01T07:01:50;12.75;;;7.40;;
38629;SDS011;24384;51.988;4.644;2022-08-01T07:04:16;18.20;;;6.85;;
38629;SDS011;24384;51.988;4.644;2022-08-01T07:06:41;13.65;;;6.35;;
38629;SDS011;24384;51.988;4.644;2022-08-01T07:09:07;11.63;;;6.40;;
38629;SDS011;24384;51.988;4.644;2022-08-01T07:11:32;16.05;;;6.85;;
38629;SDS011;24384;51.988;4.644;2022-08-01T07:13:58;15.02;;;6.80;;
38629;SDS011;24384;51.988;4.644;2022-08-01T07:16:24;18.00;;;7.70;;
38629;SDS011;24384;51.988;4.644;2022-08-01T07:18:49;17.65;;;8.27;;
38629;SDS011;24384;51.988;4.644;2022-08-01T07:21:15;22.10;;;8.68;;
38629;SDS011;24384;51.988;4.644;2022-08-01T07:23:40;18.83;;;8.07;;
38629;SDS011;24384;51.988;4.644;2022-08-01T07:26:05;22.45;;;9.23;;
38629;SDS011;24384;51.988;4.644;2022-08-01T07:28:32;21.23;;;8.75;;
38629;SDS011;24384;51.988;4.644;2022-08-01T07:30:57;28.08;;;9.48;;
38629;SDS011;24384;51.988;4.644;2022-08-01T07:33:23;19.33;;;10.05;;
38629;SDS011;24384;51.988;4.644;2022-08-01T07:35:48;23.08;;;9.38;;
38629;SDS011;24384;51.988;4.644;2022-08-01T07:38:13;21.88;;;10.18;;
38629;SDS011;24384;51.988;4.644;2022-08-01T07:40:41;29.17;;;10.25;;
38629;SDS011;24384;51.988;4.644;2022-08-01T07:43:07;23.42;;;8.82;;
38629;SDS011;24384;51.988;4.644;2022-08-01T07:45:33;22.67;;;7.80;;
38629;SDS011;24384;51.988;4.644;2022-08-01T07:48:05;18.25;;;6.55;;
38629;SDS011;24384;51.988;4.644;2022-08-01T07:50:31;17.33;;;4.88;;
38629;SDS011;24384;51.988;4.644;2022-08-01T07:52:57;17.38;;;4.80;;
38629;SDS011;24384;51.988;4.644;2022-08-01T07:55:23;17.27;;;4.65;;
38629;SDS011;24384;51.988;4.644;2022-08-01T07:57:48;17.08;;;4.55;;
38629;SDS011;24384;51.988;4.644;2022-08-01T08:00:14;17.52;;;4.53;;
38629;SDS011;24384;51.988;4.644;2022-08-01T08:02:40;19.60;;;3.33;;
38629;SDS011;24384;51.988;4.644;2022-08-01T08:05:05;16.80;;;3.95;;
38629;SDS011;24384;51.988;4.644;2022-08-01T08:07:32;17.13;;;3.30;;
38629;SDS011;24384;51.988;4.644;2022-08-01T08:09:58;12.27;;;3.53;;
38629;SDS011;24384;51.988;4.644;2022-08-01T08:12:23;15.65;;;3.58;;
38629;SDS011;24384;51.988;4.644;2022-08-01T08:14:49;11.27;;;2.92;;
38629;SDS011;24384;51.988;4.644;2022-08-01T08:17:14;14.80;;;3.22;;
38629;SDS011;24384;51.988;4.644;2022-08-01T08:19:40;15.43;;;3.28;;
38629;SDS011;24384;51.988;4.644;2022-08-01T08:22:06;10.68;;;3.00;;
38629;SDS011;24384;51.988;4.644;2022-08-01T08:24:32;22.63;;;4.20;;
38629;SDS011;24384;51.988;4.644;2022-08-01T08:27:00;17.33;;;3.42;;
38629;SDS011;24384;51.988;4.644;2022-08-01T08:29:26;12.18;;;2.55;;
38629;SDS011;24384;51.988;4.644;2022-08-01T08:31:54;14.75;;;3.03;;
38629;SDS011;24384;51.988;4.644;2022-08-01T08:34:20;17.17;;;3.45;;
38629;SDS011;24384;51.988;4.644;2022-08-01T08:36:46;14.57;;;3.00;;
38629;SDS011;24384;51.988;4.644;2022-08-01T08:39:12;12.07;;;3.00;;
38629;SDS011;24384;51.988;4.644;2022-08-01T08:41:37;10.02;;;2.47;;
38629;SDS011;24384;51.988;4.644;2022-08-01T08:44:06;12.80;;;2.47;;
38629;SDS011;24384;51.988;4.644;2022-08-01T08:46:34;13.75;;;2.92;;
38629;SDS011;24384;51.988;4.644;2022-08-01T08:49:09;16.77;;;2.85;;
38629;SDS011;24384;51.988;4.644;2022-08-01T08:51:37;15.65;;;2.95;;
38629;SDS011;24384;51.988;4.644;2022-08-01T08:54:06;12.27;;;2.10;;
38629;SDS011;24384;51.988;4.644;2022-08-01T08:56:33;11.38;;;2.28;;
38629;SDS011;24384;51.988;4.644;2022-08-01T08:59:00;11.02;;;2.15;;
38629;SDS011;24384;51.988;4.644;2022-08-01T09:01:27;17.10;;;2.70;;
38629;SDS011;24384;51.988;4.644;2022-08-01T09:03:53;14.43;;;2.15;;
38629;SDS011;24384;51.988;4.644;2022-08-01T09:06:19;11.43;;;2.20;;
38629;SDS011;24384;51.988;4.644;2022-08-01T09:08:45;12.10;;;1.98;;
38629;SDS011;24384;51.988;4.644;2022-08-01T09:11:11;10.77;;;1.88;;
38629;SDS011;24384;51.988;4.644;2022-08-01T09:13:36;8.57;;;1.88;;
38629;SDS011;24384;51.988;4.644;2022-08-01T09:16:02;10.45;;;1.98;;
38629;SDS011;24384;51.988;4.644;2022-08-01T09:18:31;9.95;;;1.48;;
38629;SDS011;24384;51.988;4.644;2022-08-01T09:23:43;9.43;;;1.80;;
38629;SDS011;24384;51.988;4.644;2022-08-01T09:26:14;9.93;;;2.17;;
38629;SDS011;24384;51.988;4.644;2022-08-01T09:28:42;8.20;;;1.75;;
38629;SDS011;24384;51.988;4.644;2022-08-01T09:31:15;11.15;;;1.90;;
38629;SDS011;24384;51.988;4.644;2022-08-01T09:36:20;7.78;;;1.77;;
38629;SDS011;24384;51.988;4.644;2022-08-01T09:38:48;7.55;;;2.00;;
38629;SDS011;24384;51.988;4.644;2022-08-01T09:41:14;8.52;;;1.77;;
38629;SDS011;24384;51.988;4.644;2022-08-01T09:43:40;11.00;;;1.77;;
38629;SDS011;24384;51.988;4.644;2022-08-01T09:46:13;8.60;;;1.85;;
38629;SDS011;24384;51.988;4.644;2022-08-01T09:48:38;10.68;;;1.98;;
38629;SDS011;24384;51.988;4.644;2022-08-01T09:51:06;10.70;;;1.50;;
38629;SDS011;24384;51.988;4.644;2022-08-01T09:53:43;9.50;;;2.00;;
38629;SDS011;24384;51.988;4.644;2022-08-01T09:56:13;9.52;;;2.03;;
38629;SDS011;24384;51.988;4.644;2022-08-01T09:58:50;8.98;;;2.10;;
38629;SDS011;24384;51.988;4.644;2022-08-01T10:01:22;10.65;;;1.83;;
38629;SDS011;24384;51.988;4.644;2022-08-01T10:06:34;7.47;;;1.85;;
38629;SDS011;24384;51.988;4.644;2022-08-01T10:09:00;9.57;;;2.00;;
38629;SDS011;24384;51.988;4.644;2022-08-01T10:11:26;9.48;;;2.03;;
38629;SDS011;24384;51.988;4.644;2022-08-01T10:13:53;8.80;;;1.75;;
38629;SDS011;24384;51.988;4.644;2022-08-01T10:16:20;10.18;;;1.67;;
38629;SDS011;24384;51.988;4.644;2022-08-01T10:18:46;10.20;;;1.77;;
38629;SDS011;24384;51.988;4.644;2022-08-01T10:21:12;6.30;;;1.63;;
38629;SDS011;24384;51.988;4.644;2022-08-01T10:26:37;10.90;;;1.80;;
38629;SDS011;24384;51.988;4.644;2022-08-01T10:29:04;7.65;;;1.88;;
38629;SDS011;24384;51.988;4.644;2022-08-01T10:31:30;8.98;;;1.90;;
38629;SDS011;24384;51.988;4.644;2022-08-01T10:33:58;6.35;;;1.60;;
38629;SDS011;24384;51.988;4.644;2022-08-01T10:36:23;7.82;;;1.70;;
38629;SDS011;24384;51.988;4.644;2022-08-01T10:38:50;17.33;;;2.20;;
38629;SDS011;24384;51.988;4.644;2022-08-01T10:41:22;9.68;;;1.92;;
38629;SDS011;24384;51.988;4.644;2022-08-01T10:43:49;6.88;;;1.50;;
38629;SDS011;24384;51.988;4.644;2022-08-01T10:46:17;12.55;;;1.80;;
38629;SDS011;24384;51.988;4.644;2022-08-01T10:51:51;10.35;;;2.10;;
38629;SDS011;24384;51.988;4.644;2022-08-01T10:54:16;7.28;;;1.83;;
38629;SDS011;24384;51.988;4.644;2022-08-01T10:56:42;11.27;;;2.20;;
38629;SDS011;24384;51.988;4.644;2022-08-01T10:59:22;9.68;;;1.95;;
38629;SDS011;24384;51.988;4.644;2022-08-01T11:04:32;15.98;;;2.17;;
38629;SDS011;24384;51.988;4.644;2022-08-01T11:07:22;9.95;;;2.20;;
38629;SDS011;24384;51.988;4.644;2022-08-01T11:10:06;15.65;;;2.10;;
38629;SDS011;24384;51.988;4.644;2022-08-01T11:12:52;10.10;;;2.30;;
38629;SDS011;24384;51.988;4.644;2022-08-01T11:15:18;12.48;;;2.38;;
38629;SDS011;24384;51.988;4.644;2022-08-01T11:17:52;10.60;;;2.20;;
38629;SDS011;24384;51.988;4.644;2022-08-01T11:20:23;13.73;;;1.90;;
38629;SDS011;24384;51.988;4.644;2022-08-01T11:25:24;6.00;;;1.70;;
38629;SDS011;24384;51.988;4.644;2022-08-01T11:28:35;8.55;;;1.73;;
38629;SDS011;24384;51.988;4.644;2022-08-01T11:30:38;7.35;;;2.03;;
38629;SDS011;24384;51.988;4.644;2022-08-01T11:33:04;8.05;;;1.60;;
38629;SDS011;24384;51.988;4.644;2022-08-01T11:35:31;8.98;;;1.70;;
38629;SDS011;24384;51.988;4.644;2022-08-01T11:37:57;26.95;;;2.20;;
38629;SDS011;24384;51.988;4.644;2022-08-01T11:43:57;11.95;;;2.03;;
38629;SDS011;24384;51.988;4.644;2022-08-01T11:52:13;7.88;;;1.88;;
38629;SDS011;24384;51.988;4.644;2022-08-01T11:54:47;6.15;;;2.15;;
38629;SDS011;24384;51.988;4.644;2022-08-01T11:59:47;9.85;;;1.95;;
38629;SDS011;24384;51.988;4.644;2022-08-01T12:02:18;14.85;;;2.25;;
38629;SDS011;24384;51.988;4.644;2022-08-01T12:04:46;8.13;;;1.88;;
38629;SDS011;24384;51.988;4.644;2022-08-01T12:07:12;8.05;;;1.70;;
38629;SDS011;24384;51.988;4.644;2022-08-01T12:09:41;10.43;;;1.77;;
38629;SDS011;24384;51.988;4.644;2022-08-01T12:12:06;10.32;;;2.25;;
38629;SDS011;24384;51.988;4.644;2022-08-01T12:14:32;11.90;;;2.17;;
38629;SDS011;24384;51.988;4.644;2022-08-01T12:16:57;11.15;;;2.08;;
38629;SDS011;24384;51.988;4.644;2022-08-01T12:19:24;12.90;;;2.45;;
38629;SDS011;24384;51.988;4.644;2022-08-01T12:22:06;8.40;;;2.00;;
38629;SDS011;24384;51.988;4.644;2022-08-01T12:24:33;11.25;;;2.15;;
38629;SDS011;24384;51.988;4.644;2022-08-01T12:27:02;9.45;;;1.98;;
38629;SDS011;24384;51.988;4.644;2022-08-01T12:29:42;9.05;;;1.77;;
38629;SDS011;24384;51.988;4.644;2022-08-01T12:32:20;8.15;;;1.80;;
38629;SDS011;24384;51.988;4.644;2022-08-01T12:34:51;7.10;;;1.80;;
38629;SDS011;24384;51.988;4.644;2022-08-01T12:37:19;9.10;;;1.85;;
38629;SDS011;24384;51.988;4.644;2022-08-01T12:39:45;11.30;;;2.00;;
38629;SDS011;24384;51.988;4.644;2022-08-01T12:42:11;5.05;;;1.77;;
38629;SDS011;24384;51.988;4.644;2022-08-01T12:44:37;5.68;;;1.48;;
38629;SDS011;24384;51.988;4.644;2022-08-01T12:47:04;7.93;;;1.92;;
38629;SDS011;24384;51.988;4.644;2022-08-01T12:49:31;9.10;;;2.10;;
38629;SDS011;24384;51.988;4.644;2022-08-01T12:51:58;11.15;;;2.28;;
38629;SDS011;24384;51.988;4.644;2022-08-01T12:54:23;11.90;;;1.80;;
38629;SDS011;24384;51.988;4.644;2022-08-01T12:56:50;8.75;;;1.98;;
38629;SDS011;24384;51.988;4.644;2022-08-01T12:59:20;5.82;;;1.48;;
38629;SDS011;24384;51.988;4.644;2022-08-01T13:01:45;7.10;;;1.50;;
38629;SDS011;24384;51.988;4.644;2022-08-01T13:04:12;9.38;;;1.92;;
38629;SDS011;24384;51.988;4.644;2022-08-01T13:06:37;12.48;;;1.73;;
38629;SDS011;24384;51.988;4.644;2022-08-01T13:09:10;8.73;;;1.70;;
38629;SDS011;24384;51.988;4.644;2022-08-01T13:11:36;6.60;;;1.70;;
38629;SDS011;24384;51.988;4.644;2022-08-01T13:14:02;11.63;;;1.90;;
38629;SDS011;24384;51.988;4.644;2022-08-01T13:16:28;8.90;;;1.95;;
38629;SDS011;24384;51.988;4.644;2022-08-01T13:18:55;7.43;;;1.50;;
38629;SDS011;24384;51.988;4.644;2022-08-01T13:21:23;10.10;;;2.30;;
38629;SDS011;24384;51.988;4.644;2022-08-01T13:24:00;6.38;;;1.70;;
38629;SDS011;24384;51.988;4.644;2022-08-01T13:26:41;9.95;;;2.30;;
38629;SDS011;24384;51.988;4.644;2022-08-01T13:29:14;10.05;;;2.22;;
38629;SDS011;24384;51.988;4.644;2022-08-01T13:31:41;7.55;;;1.73;;
38629;SDS011;24384;51.988;4.644;2022-08-01T13:34:08;10.70;;;1.60;;
38629;SDS011;24384;51.988;4.644;2022-08-01T13:36:34;11.65;;;1.77;;
38629;SDS011;24384;51.988;4.644;2022-08-01T13:39:00;6.38;;;1.73;;
38629;SDS011;24384;51.988;4.644;2022-08-01T13:41:45;6.95;;;1.58;;
38629;SDS011;24384;51.988;4.644;2022-08-01T13:44:11;8.70;;;1.75;;
38629;SDS011;24384;51.988;4.644;2022-08-01T13:46:37;7.93;;;2.15;;
38629;SDS011;24384;51.988;4.644;2022-08-01T13:49:03;7.30;;;1.88;;
38629;SDS011;24384;51.988;4.644;2022-08-01T13:51:30;6.63;;;1.50;;
38629;SDS011;24384;51.988;4.644;2022-08-01T13:53:56;9.93;;;2.00;;
38629;SDS011;24384;51.988;4.644;2022-08-01T13:56:22;4.65;;;1.70;;
38629;SDS011;24384;51.988;4.644;2022-08-01T13:58:48;5.18;;;1.42;;
38629;SDS011;24384;51.988;4.644;2022-08-01T14:01:13;7.18;;;1.55;;
38629;SDS011;24384;51.988;4.644;2022-08-01T14:03:39;6.60;;;1.70;;
38629;SDS011;24384;51.988;4.644;2022-08-01T14:06:04;5.40;;;1.38;;
38629;SDS011;24384;51.988;4.644;2022-08-01T14:08:30;7.60;;;1.33;;
38629;SDS011;24384;51.988;4.644;2022-08-01T14:10:55;7.40;;;1.58;;
38629;SDS011;24384;51.988;4.644;2022-08-01T14:13:24;6.70;;;2.67;;
38629;SDS011;24384;51.988;4.644;2022-08-01T14:15:51;6.82;;;1.77;;
38629;SDS011;24384;51.988;4.644;2022-08-01T14:18:17;6.00;;;1.48;;
38629;SDS011;24384;51.988;4.644;2022-08-01T14:20:43;8.43;;;1.80;;
38629;SDS011;24384;51.988;4.644;2022-08-01T14:23:08;8.30;;;1.58;;
38629;SDS011;24384;51.988;4.644;2022-08-01T14:25:35;5.53;;;1.48;;
38629;SDS011;24384;51.988;4.644;2022-08-01T14:28:04;7.38;;;1.85;;
38629;SDS011;24384;51.988;4.644;2022-08-01T14:30:31;7.45;;;1.70;;
38629;SDS011;24384;51.988;4.644;2022-08-01T14:32:56;4.95;;;1.42;;
38629;SDS011;24384;51.988;4.644;2022-08-01T14:35:22;7.22;;;1.50;;
38629;SDS011;24384;51.988;4.644;2022-08-01T14:37:47;27.73;;;2.10;;
38629;SDS011;24384;51.988;4.644;2022-08-01T14:40:13;16.30;;;1.73;;
38629;SDS011;24384;51.988;4.644;2022-08-01T14:42:38;11.05;;;1.63;;
38629;SDS011;24384;51.988;4.644;2022-08-01T14:45:04;8.95;;;1.95;;
38629;SDS011;24384;51.988;4.644;2022-08-01T14:47:37;14.27;;;1.75;;
38629;SDS011;24384;51.988;4.644;2022-08-01T14:50:07;5.75;;;1.45;;
38629;SDS011;24384;51.988;4.644;2022-08-01T14:52:35;6.00;;;1.52;;
38629;SDS011;24384;51.988;4.644;2022-08-01T14:55:01;8.52;;;1.60;;
38629;SDS011;24384;51.988;4.644;2022-08-01T14:57:27;8.90;;;1.83;;
38629;SDS011;24384;51.988;4.644;2022-08-01T14:59:53;9.57;;;1.45;;
38629;SDS011;24384;51.988;4.644;2022-08-01T15:02:18;9.13;;;1.98;;
38629;SDS011;24384;51.988;4.644;2022-08-01T15:04:44;7.53;;;1.60;;
38629;SDS011;24384;51.988;4.644;2022-08-01T15:07:10;7.47;;;1.52;;
38629;SDS011;24384;51.988;4.644;2022-08-01T15:09:36;6.55;;;1.80;;
38629;SDS011;24384;51.988;4.644;2022-08-01T15:12:02;7.78;;;1.83;;
38629;SDS011;24384;51.988;4.644;2022-08-01T15:14:27;7.28;;;1.63;;
38629;SDS011;24384;51.988;4.644;2022-08-01T15:17:11;7.38;;;1.85;;
38629;SDS011;24384;51.988;4.644;2022-08-01T15:19:36;10.60;;;2.13;;
38629;SDS011;24384;51.988;4.644;2022-08-01T15:22:03;7.57;;;1.70;;
38629;SDS011;24384;51.988;4.644;2022-08-01T15:24:30;6.97;;;1.80;;
38629;SDS011;24384;51.988;4.644;2022-08-01T15:26:55;8.15;;;2.10;;
38629;SDS011;24384;51.988;4.644;2022-08-01T15:29:21;9.80;;;1.98;;